Time;durP1;ratioP1;P1;durP2;ratioP2;P2;SDS_P1;SDS_P2;PMS_P1;PMS_P2;Temp;Humidity;BMP_temperature;BMP_pressure;BME280_temperature;BME280_humidity;BME280_pressure;Samples;Min_cycle;Max_cycle;Signal;HPM_P1;HPM_P2
2021/01/26 00:00:16;;;;;;;12.35;6.70;;;-1.80;97.70;;;;;;5036229;28;20457;-81
2021/01/26 00:02:42;;;;;;;12.73;7.45;;;-1.80;98.00;;;;;;5036005;28;20025;-80
2021/01/26 00:05:09;;;;;;;12.73;7.32;;;-1.70;98.10;;;;;;5036051;28;20418;-80
2021/01/26 00:07:35;;;;;;;10.48;6.95;;;-1.80;98.20;;;;;;5036061;28;20017;-81
2021/01/26 00:10:01;;;;;;;13.95;6.57;;;-1.80;98.20;;;;;;5035707;28;20060;-81
2021/01/26 00:12:27;;;;;;;11.35;6.95;;;-1.90;97.90;;;;;;5036116;28;20067;-81
2021/01/26 00:14:52;;;;;;;12.00;6.68;;;-1.90;98.00;;;;;;5036804;28;20029;-80
2021/01/26 00:17:18;;;;;;;12.07;6.78;;;-1.90;98.30;;;;;;5039897;28;20045;-80
2021/01/26 00:19:44;;;;;;;9.95;6.40;;;-1.90;98.20;;;;;;5040087;28;20028;-80
2021/01/26 00:22:09;;;;;;;13.73;8.20;;;-1.90;98.10;;;;;;5039684;28;20036;-80
2021/01/26 00:24:35;;;;;;;7.85;4.78;;;-1.90;98.00;;;;;;5039922;28;20133;-81
2021/01/26 00:27:01;;;;;;;8.98;4.85;;;-1.90;97.90;;;;;;5039776;28;20074;-81
2021/01/26 00:29:27;;;;;;;6.80;4.40;;;-1.90;97.50;;;;;;5039776;28;20475;-81
2021/01/26 00:31:53;;;;;;;6.00;3.97;;;-1.90;97.50;;;;;;5039638;28;20161;-82
2021/01/26 00:34:18;;;;;;;6.90;3.17;;;-1.90;97.50;;;;;;5039845;28;20029;-81
2021/01/26 00:36:44;;;;;;;5.72;3.53;;;-2.00;97.50;;;;;;5040023;28;20075;-82
2021/01/26 00:39:09;;;;;;;4.70;3.25;;;-2.00;97.60;;;;;;5057402;28;20025;-80
2021/01/26 00:41:35;;;;;;;6.65;2.95;;;-2.00;97.30;;;;;;5057438;28;20025;-81
2021/01/26 00:44:01;;;;;;;4.18;2.90;;;-2.00;97.70;;;;;;5039506;28;20495;-81
2021/01/26 00:46:26;;;;;;;6.30;3.28;;;-2.10;97.80;;;;;;5057343;28;20403;-81
2021/01/26 00:48:52;;;;;;;3.85;2.90;;;-2.00;97.60;;;;;;5039586;28;20534;-80
2021/01/26 00:51:19;;;;;;;4.93;3.10;;;-2.10;97.60;;;;;;5039584;28;20033;-82
2021/01/26 00:53:44;;;;;;;6.82;3.85;;;-2.10;97.60;;;;;;5039501;28;20357;-81
2021/01/26 00:56:10;;;;;;;8.48;4.45;;;-2.00;97.60;;;;;;5039502;28;20036;-80
2021/01/26 00:58:35;;;;;;;8.48;5.70;;;-2.00;97.70;;;;;;5039339;28;20025;-81
2021/01/26 01:01:02;;;;;;;9.30;6.00;;;-2.10;97.90;;;;;;5039955;28;20099;-80
2021/01/26 01:03:28;;;;;;;12.73;5.72;;;-2.10;98.10;;;;;;5039321;28;20151;-80
2021/01/26 01:05:53;;;;;;;10.23;5.47;;;-2.10;98.00;;;;;;5039515;28;20068;-81
2021/01/26 01:08:19;;;;;;;9.10;5.60;;;-2.10;98.10;;;;;;5039544;28;20025;-80
2021/01/26 01:10:45;;;;;;;10.40;5.63;;;-2.10;98.10;;;;;;5057164;28;20036;-80
2021/01/26 01:13:11;;;;;;;8.90;5.82;;;-2.20;98.10;;;;;;5039215;28;20025;-82
2021/01/26 01:15:38;;;;;;;14.40;6.50;;;-2.20;98.20;;;;;;5039229;28;20067;-81
2021/01/26 01:18:05;;;;;;;12.43;6.70;;;-2.20;98.30;;;;;;5039209;28;20025;-81
2021/01/26 01:20:31;;;;;;;13.90;6.80;;;-2.20;98.30;;;;;;5039223;28;20036;-81
2021/01/26 01:22:57;;;;;;;10.57;6.53;;;-2.30;98.20;;;;;;5039192;28;20380;-80
2021/01/26 01:25:23;;;;;;;10.63;6.57;;;-2.20;98.30;;;;;;5039173;28;20029;-80
2021/01/26 01:27:48;;;;;;;10.68;7.07;;;-2.30;98.40;;;;;;5038130;28;20029;-80
2021/01/26 01:30:18;;;;;;;11.63;6.32;;;-2.30;98.40;;;;;;5038908;28;20082;-81
2021/01/26 01:32:43;;;;;;;11.88;5.85;;;-2.30;98.10;;;;;;5039063;28;20485;-82
2021/01/26 01:35:09;;;;;;;12.65;6.63;;;-2.30;97.90;;;;;;5039287;28;20036;-81
2021/01/26 01:37:35;;;;;;;11.23;6.70;;;-2.30;98.00;;;;;;5038950;28;20610;-82
2021/01/26 01:40:01;;;;;;;8.90;5.82;;;-2.30;98.00;;;;;;5039074;28;20052;-83
2021/01/26 01:42:27;;;;;;;9.05;5.53;;;-2.30;98.10;;;;;;5038285;28;20061;-82
2021/01/26 01:44:52;;;;;;;6.80;4.93;;;-2.40;98.10;;;;;;5038816;28;20381;-81
2021/01/26 01:47:25;;;;;;;7.78;4.30;;;-2.40;98.10;;;;;;5038920;28;20025;-81
2021/01/26 01:49:51;;;;;;;5.38;3.00;;;-2.40;98.00;;;;;;5038661;28;20021;-81
2021/01/26 01:52:21;;;;;;;6.95;3.50;;;-2.40;97.70;;;;;;5038730;28;20032;-82
2021/01/26 01:55:01;;;;;;;8.13;5.05;;;-2.30;97.80;;;;;;5056220;28;20045;-83
2021/01/26 01:57:30;;;;;;;7.75;4.43;;;-2.30;97.60;;;;;;5038162;28;20041;-81
2021/01/26 02:00:00;;;;;;;10.00;5.38;;;-2.20;97.50;;;;;;5038535;28;20025;-81
2021/01/26 02:02:28;;;;;;;7.65;4.70;;;-2.20;97.50;;;;;;5038461;28;20029;-81
2021/01/26 02:04:58;;;;;;;10.40;4.25;;;-2.20;97.40;;;;;;5038333;28;20040;-81
2021/01/26 02:07:24;;;;;;;6.10;4.05;;;-2.10;97.10;;;;;;5038344;28;20029;-81
2021/01/26 02:09:50;;;;;;;8.25;4.20;;;-2.10;97.20;;;;;;5038400;28;20120;-82
2021/01/26 02:12:15;;;;;;;6.70;4.20;;;-2.10;96.90;;;;;;5038463;28;20068;-81
2021/01/26 02:14:48;;;;;;;5.53;3.85;;;-2.10;97.10;;;;;;5038561;28;20025;-81
2021/01/26 02:17:34;;;;;;;7.43;4.47;;;-2.00;96.50;;;;;;5038587;28;20074;-80
2021/01/26 02:20:16;;;;;;;;;;;-2.10;96.50;;;;;;5038431;28;20056;-80
2021/01/26 02:23:00;;;;;;;6.25;4.00;;;-2.10;96.60;;;;;;5037939;28;19904;-80
2021/01/26 02:25:43;;;;;;;5.80;3.90;;;-2.10;96.70;;;;;;5038580;28;20127;-82
2021/01/26 02:28:21;;;;;;;8.55;4.63;;;-2.20;96.90;;;;;;5038196;28;20047;-81
2021/01/26 02:31:08;;;;;;;7.40;4.13;;;-2.20;96.90;;;;;;5038262;28;20216;-81
2021/01/26 02:33:55;;;;;;;6.28;3.80;;;-2.20;97.00;;;;;;5038050;28;20025;-80
2021/01/26 02:36:54;;;;;;;6.63;4.20;;;-2.30;97.10;;;;;;5037843;28;20035;-82
2021/01/26 02:39:33;;;;;;;5.15;4.00;;;-2.30;97.00;;;;;;5055632;28;20020;-82
2021/01/26 02:42:36;;;;;;;6.25;3.60;;;-2.20;97.10;;;;;;5037108;28;20029;-81
2021/01/26 02:45:10;;;;;;;6.72;3.83;;;-2.20;96.80;;;;;;5007497;28;20086;-81
2021/01/26 02:47:39;;;;;;;5.32;3.33;;;-2.20;96.90;;;;;;5037768;28;20029;-81
2021/01/26 02:50:07;;;;;;;6.07;3.67;;;-2.20;96.90;;;;;;5037593;28;20376;-81
2021/01/26 02:52:42;;;;;;;7.00;3.38;;;-2.20;96.70;;;;;;5037474;28;20480;-81
2021/01/26 02:55:15;;;;;;;3.90;2.50;;;-2.30;96.70;;;;;;5037487;28;20025;-81
2021/01/26 02:57:59;;;;;;;5.53;3.30;;;-2.30;96.80;;;;;;5037554;28;20052;-81
2021/01/26 03:00:29;;;;;;;4.60;3.15;;;-2.30;96.70;;;;;;5037396;28;20033;-81
2021/01/26 03:03:16;;;;;;;5.78;3.78;;;-2.30;96.90;;;;;;5037090;28;20025;-81
2021/01/26 03:05:49;;;;;;;8.85;4.20;;;-2.30;97.20;;;;;;5037285;28;20099;-81
2021/01/26 03:08:56;;;;;;;6.78;4.18;;;-2.30;97.30;;;;;;5037786;28;20025;-80
2021/01/26 03:11:50;;;;;;;5.70;3.80;;;-2.30;97.60;;;;;;5036837;28;20078;-81
2021/01/26 03:14:25;;;;;;;9.40;4.80;;;-2.30;97.70;;;;;;5054896;28;20112;-82
2021/01/26 03:17:10;;;;;;;9.15;5.13;;;-2.30;97.90;;;;;;5037207;28;20021;-81
2021/01/26 03:19:37;;;;;;;7.93;5.20;;;-2.30;98.00;;;;;;5054820;28;20025;-81
2021/01/26 03:22:06;;;;;;;6.85;4.95;;;-2.30;98.10;;;;;;5037067;28;20025;-82
2021/01/26 03:24:41;;;;;;;9.18;5.47;;;-2.30;98.00;;;;;;5037344;28;20124;-82
2021/01/26 03:27:12;;;;;;;8.05;4.88;;;-2.30;98.10;;;;;;5037020;28;20024;-82
2021/01/26 03:29:42;;;;;;;8.95;5.78;;;-2.30;98.00;;;;;;5036823;28;20037;-81
2021/01/26 03:32:14;;;;;;;9.25;5.22;;;-2.30;97.70;;;;;;5036414;28;20017;-80
2021/01/26 03:34:39;;;;;;;8.55;4.95;;;-2.30;97.70;;;;;;5036836;28;20063;-82
2021/01/26 03:37:06;;;;;;;11.13;5.40;;;-2.30;97.80;;;;;;5036805;28;20021;-83
2021/01/26 03:39:32;;;;;;;7.15;4.47;;;-2.40;97.50;;;;;;5037089;28;20498;-81
2021/01/26 03:42:00;;;;;;;7.97;5.13;;;-2.40;97.50;;;;;;5054174;28;20083;-81
2021/01/26 03:44:26;;;;;;;7.47;4.43;;;-2.40;97.60;;;;;;5036481;28;20040;-81
2021/01/26 03:47:24;;;;;;;6.88;4.63;;;-2.40;97.50;;;;;;5036986;28;20032;-80
2021/01/26 03:50:01;;;;;;;7.55;4.60;;;-2.40;97.30;;;;;;5036730;28;20028;-81
2021/01/26 03:52:55;;;;;;;8.85;4.88;;;-2.50;97.20;;;;;;5036982;28;20369;-79
2021/01/26 03:55:29;;;;;;;7.43;4.82;;;-2.50;97.20;;;;;;5036770;28;20021;-81
2021/01/26 03:58:00;;;;;;;5.38;3.72;;;-2.50;97.30;;;;;;5036821;28;20207;-80
2021/01/26 04:00:55;;;;;;;9.18;4.68;;;-2.50;97.20;;;;;;5036908;28;20112;-80
2021/01/26 04:03:39;;;;;;;6.88;3.92;;;-2.50;97.20;;;;;;5026507;28;20155;-83
2021/01/26 04:06:35;;;;;;;7.25;4.43;;;-2.50;97.40;;;;;;5037488;28;20083;-84
2021/01/26 04:09:14;;;;;;;8.43;4.70;;;-2.60;97.40;;;;;;5055044;28;20032;-82
2021/01/26 04:11:40;;;;;;;6.28;4.35;;;-2.60;97.40;;;;;;5036924;28;20029;-83
2021/01/26 04:14:12;;;;;;;6.90;4.18;;;-2.60;97.40;;;;;;5036910;28;20018;-82
2021/01/26 04:16:44;;;;;;;7.38;4.75;;;-2.70;97.70;;;;;;5036944;28;20025;-83
2021/01/26 04:19:13;;;;;;;7.90;4.50;;;-2.70;97.50;;;;;;5037213;28;20025;-81
2021/01/26 04:21:40;;;;;;;5.90;3.58;;;-2.70;97.50;;;;;;5037128;28;20025;-84
2021/01/26 04:24:06;;;;;;;6.28;4.35;;;-2.70;97.10;;;;;;5054102;28;20051;-81
2021/01/26 04:26:35;;;;;;;5.80;3.80;;;-2.80;97.30;;;;;;5036598;28;20043;-83
2021/01/26 04:29:01;;;;;;;5.18;3.60;;;-2.80;97.20;;;;;;5036808;28;20029;-82
2021/01/26 04:31:26;;;;;;;5.45;3.90;;;-2.90;96.80;;;;;;5036828;28;20032;-82
2021/01/26 04:33:52;;;;;;;6.18;3.88;;;-2.90;97.10;;;;;;5036471;28;20039;-83
2021/01/26 04:36:20;;;;;;;6.72;3.75;;;-3.00;97.40;;;;;;5036788;28;20033;-82
2021/01/26 04:38:46;;;;;;;5.38;3.80;;;-2.90;97.60;;;;;;5036972;28;20087;-81
2021/01/26 04:41:21;;;;;;;6.15;3.88;;;-3.00;97.60;;;;;;5054917;28;20051;-82
2021/01/26 04:44:28;;;;;;;5.53;3.72;;;-3.00;97.70;;;;;;5036051;28;20480;-82
2021/01/26 04:47:19;;;;;;;7.07;3.58;;;-3.00;97.60;;;;;;5037116;28;20112;-80
2021/01/26 04:50:03;;;;;;;6.32;3.58;;;-3.00;97.40;;;;;;5036277;28;20119;-80
2021/01/26 04:52:52;;;;;;;7.93;5.72;;;-3.10;97.70;;;;;;5035730;28;20445;-81
2021/01/26 04:55:37;;;;;;;21.35;12.98;;;-3.10;97.70;;;;;;4999068;28;20044;-82
2021/01/26 04:58:12;;;;;;;10.37;7.37;;;-3.00;97.60;;;;;;5035919;28;20048;-82
2021/01/26 05:01:01;;;;;;;8.93;5.97;;;-3.00;97.40;;;;;;5035895;28;20278;-80
2021/01/26 05:03:45;;;;;;;8.23;5.78;;;-3.10;97.50;;;;;;5038671;28;20036;-80
2021/01/26 05:06:16;;;;;;;9.52;7.13;;;-3.10;97.20;;;;;;5039434;28;20028;-81
2021/01/26 05:08:43;;;;;;;10.77;6.97;;;-3.20;97.30;;;;;;5039498;28;20473;-80
2021/01/26 05:11:16;;;;;;;6.35;4.68;;;-3.20;97.40;;;;;;5039367;28;20059;-80
2021/01/26 05:13:44;;;;;;;7.28;4.22;;;-3.20;97.40;;;;;;5038412;28;20078;-81
2021/01/26 05:16:23;;;;;;;5.57;3.88;;;-3.30;97.50;;;;;;5038836;28;20033;-82
2021/01/26 05:19:02;;;;;;;5.40;3.80;;;-3.30;97.50;;;;;;5039377;28;20021;-81
2021/01/26 05:21:48;;;;;;;6.10;3.47;;;-3.40;97.30;;;;;;5038643;28;20020;-82
2021/01/26 05:24:41;;;;;;;5.93;3.75;;;-3.40;97.60;;;;;;5039142;28;20028;-82
2021/01/26 05:27:08;;;;;;;7.82;3.92;;;-3.50;97.50;;;;;;5039156;28;20395;-81
2021/01/26 05:29:35;;;;;;;4.68;3.67;;;-3.50;97.40;;;;;;5039302;28;20025;-81
2021/01/26 05:32:04;;;;;;;6.63;4.00;;;-3.60;97.40;;;;;;5039322;28;20047;-80
2021/01/26 05:34:32;;;;;;;5.90;4.25;;;-3.60;97.40;;;;;;5039522;28;20055;-81
2021/01/26 05:36:58;;;;;;;7.47;3.95;;;-3.70;97.10;;;;;;5039398;28;20480;-81
2021/01/26 05:39:56;;;;;;;5.07;3.00;;;-3.70;96.90;;;;;;5039058;28;20029;-81
2021/01/26 05:42:24;;;;;;;4.90;2.83;;;-3.80;96.60;;;;;;5037886;28;20033;-81
2021/01/26 05:44:54;;;;;;;4.22;2.90;;;-3.90;97.10;;;;;;5038636;28;20041;-81
2021/01/26 05:47:34;;;;;;;4.07;2.55;;;-3.90;97.20;;;;;;5038968;28;20372;-80
2021/01/26 05:50:00;;;;;;;3.95;2.80;;;-4.00;97.20;;;;;;5039148;28;20105;-81
2021/01/26 05:52:39;;;;;;;3.13;2.20;;;-3.90;97.40;;;;;;5038207;28;20055;-81
2021/01/26 05:55:20;;;;;;;3.13;2.10;;;-3.90;97.50;;;;;;5038614;28;20021;-80
2021/01/26 05:57:48;;;;;;;3.17;2.17;;;-3.90;97.60;;;;;;5038459;28;20611;-81
2021/01/26 06:00:27;;;;;;;3.92;2.17;;;-4.00;97.50;;;;;;5038547;28;20502;-81
2021/01/26 06:03:11;;;;;;;2.58;1.92;;;-3.90;97.60;;;;;;5038195;28;20082;-80
2021/01/26 06:05:39;;;;;;;3.67;2.40;;;-3.90;97.70;;;;;;5038243;28;20029;-80
2021/01/26 06:08:06;;;;;;;10.82;7.32;;;-3.80;97.70;;;;;;5038607;28;20071;-80
2021/01/26 06:10:33;;;;;;;26.50;12.63;;;-3.80;97.80;;;;;;5038026;28;20071;-81
2021/01/26 06:12:59;;;;;;;19.55;9.85;;;-2.10;99.90;;;;;;5037577;28;20028;-78
2021/01/26 06:15:29;;;;;;;11.30;5.28;;;-2.20;99.90;;;;;;5041968;28;20025;-78
2021/01/26 06:18:11;;;;;;;12.00;6.00;;;-2.60;99.90;;;;;;5039997;28;20064;-82
2021/01/26 06:20:38;;;;;;;9.85;4.22;;;-3.10;99.90;;;;;;5037660;28;20033;-80
2021/01/26 06:23:20;;;;;;;4.10;2.92;;;-3.30;99.90;;;;;;5037064;28;20021;-79
2021/01/26 06:25:52;;;;;;;10.65;5.75;;;-3.50;99.90;;;;;;5037387;28;20029;-79
2021/01/26 06:28:46;;;;;;;52.55;26.90;;;-3.60;99.90;;;;;;5037065;28;20082;-80
2021/01/26 06:31:42;;;;;;;14.38;8.50;;;-3.70;99.90;;;;;;5036973;28;20029;-79
2021/01/26 06:34:38;;;;;;;10.50;6.93;;;-3.80;99.90;;;;;;5036578;28;20052;-79
2021/01/26 06:37:19;;;;;;;5.50;3.35;;;-3.80;99.70;;;;;;5036807;28;20036;-78
2021/01/26 06:40:06;;;;;;;5.85;4.88;;;-3.90;99.30;;;;;;5054349;28;20025;-78
2021/01/26 06:42:57;;;;;;;5.97;4.35;;;-3.90;99.30;;;;;;5036497;28;20052;-78
2021/01/26 06:45:47;;;;;;;6.68;3.47;;;-3.90;99.10;;;;;;5037066;28;20491;-79
2021/01/26 06:48:31;;;;;;;6.13;3.40;;;-3.80;99.00;;;;;;5037237;28;20123;-79
2021/01/26 06:51:09;;;;;;;3.67;2.70;;;-3.80;98.90;;;;;;5036546;28;20052;-80
2021/01/26 06:53:59;;;;;;;4.63;2.83;;;-3.80;98.70;;;;;;5036806;28;20094;-78
2021/01/26 06:56:28;;;;;;;4.25;2.40;;;-3.80;98.40;;;;;;5036875;28;20021;-80
2021/01/26 06:59:12;;;;;;;4.32;2.67;;;-3.70;98.50;;;;;;5054295;28;20028;-79
2021/01/26 07:02:02;;;;;;;5.32;2.88;;;-3.60;98.40;;;;;;5037190;28;20032;-80
2021/01/26 07:04:39;;;;;;;25.30;16.02;;;-3.60;98.60;;;;;;5036170;28;20040;-80
2021/01/26 07:07:41;;;;;;;38.80;19.55;;;-3.40;98.80;;;;;;5036676;28;20088;-79
2021/01/26 07:10:09;;;;;;;15.82;8.57;;;-3.30;99.00;;;;;;5054552;28;20048;-79
2021/01/26 07:13:02;;;;;;;9.60;5.35;;;-3.20;99.00;;;;;;5036800;28;20107;-80
2021/01/26 07:15:52;;;;;;;9.88;4.72;;;-3.10;99.00;;;;;;5036335;28;20033;-78
2021/01/26 07:18:38;;;;;;;9.23;4.25;;;-2.90;98.80;;;;;;5036266;28;20115;-79
2021/01/26 07:21:30;;;;;;;8.68;5.75;;;-2.80;98.20;;;;;;5036267;28;20515;-81
2021/01/26 07:24:18;;;;;;;7.35;4.55;;;-2.70;97.60;;;;;;5053688;28;20036;-80
2021/01/26 07:27:04;;;;;;;16.45;7.28;;;-2.60;97.40;;;;;;5036383;28;20021;-82
2021/01/26 07:30:22;;;;;;;26.50;12.43;;;-2.50;97.10;;;;;;5036714;28;20017;-80
2021/01/26 07:33:04;;;;;;;17.58;10.23;;;-2.40;97.10;;;;;;5030881;28;20033;-82
2021/01/26 07:35:59;;;;;;;19.70;10.32;;;-2.40;96.90;;;;;;5037039;28;20028;-82
2021/01/26 07:39:03;;;;;;;9.65;5.90;;;-2.30;96.50;;;;;;5019916;28;20037;-79
2021/01/26 07:41:32;;;;;;;21.98;12.05;;;-2.20;96.80;;;;;;4997119;28;20119;-81
2021/01/26 07:44:16;;;;;;;28.55;14.07;;;-2.20;96.90;;;;;;5036488;28;20138;-80
2021/01/26 07:46:51;;;;;;;14.00;7.40;;;-2.10;96.70;;;;;;5037038;28;20025;-81
2021/01/26 07:49:40;;;;;;;54.28;27.20;;;-2.10;96.70;;;;;;5035716;28;20021;-79
2021/01/26 07:52:07;;;;;;;34.60;18.50;;;-2.10;96.60;;;;;;5036852;28;20029;-82
2021/01/26 07:55:02;;;;;;;29.58;17.67;;;-2.00;96.60;;;;;;5037349;28;20025;-80
2021/01/26 07:58:02;;;;;;;17.33;10.82;;;-2.00;96.50;;;;;;5008573;28;20048;-80
2021/01/26 08:00:31;;;;;;;26.90;12.65;;;-2.00;96.50;;;;;;5022655;28;20415;-80
2021/01/26 08:02:59;;;;;;;23.48;10.40;;;-1.90;96.90;;;;;;5036909;28;20103;-79
2021/01/26 08:05:46;;;;;;;20.88;9.90;;;-1.90;96.60;;;;;;5036428;28;20033;-80
2021/01/26 08:08:34;;;;;;;19.70;13.35;;;-1.80;96.30;;;;;;5054098;28;20061;-79
2021/01/26 08:11:25;;;;;;;24.15;14.30;;;-1.80;96.20;;;;;;5036043;28;20468;-80
2021/01/26 08:13:58;;;;;;;20.38;11.93;;;-1.70;96.00;;;;;;5036251;28;20029;-79
2021/01/26 08:16:39;;;;;;;16.55;10.27;;;-1.60;95.90;;;;;;5035872;28;20116;-79
2021/01/26 08:19:31;;;;;;;13.45;9.18;;;-1.60;95.60;;;;;;5054248;28;20029;-79
2021/01/26 08:21:58;;;;;;;14.05;6.97;;;-1.60;95.50;;;;;;5054455;28;20055;-77
2021/01/26 08:24:35;;;;;;;14.55;8.88;;;-1.60;95.10;;;;;;5036980;28;20053;-80
2021/01/26 08:27:29;;;;;;;14.38;8.55;;;-1.60;95.70;;;;;;5036588;28;20074;-79
2021/01/26 08:29:57;;;;;;;14.43;9.63;;;-1.60;95.90;;;;;;5036183;28;20469;-79
2021/01/26 08:32:22;;;;;;;18.20;11.35;;;-1.60;95.70;;;;;;5036524;28;20539;-83
2021/01/26 08:35:20;;;;;;;15.98;10.85;;;-1.50;95.90;;;;;;5055721;28;20060;-83
2021/01/26 08:37:53;;;;;;;19.58;11.18;;;-1.50;95.80;;;;;;5040579;28;20025;-83
2021/01/26 08:40:37;;;;;;;20.13;11.50;;;-1.40;95.50;;;;;;5040243;28;20025;-80
2021/01/26 08:43:07;;;;;;;19.33;10.25;;;-1.30;95.50;;;;;;5046579;28;20049;-82
2021/01/26 08:45:33;;;;;;;18.75;9.50;;;-1.10;95.40;;;;;;5028028;28;20025;-78
2021/01/26 08:48:21;;;;;;;15.20;9.23;;;-1.10;95.20;;;;;;5038831;28;20021;-78
2021/01/26 08:50:50;;;;;;;12.13;6.85;;;-1.00;95.30;;;;;;5038994;28;20050;-79
2021/01/26 08:53:21;;;;;;;12.50;6.47;;;-1.00;93.80;;;;;;5038679;28;20071;-79
2021/01/26 08:56:11;;;;;;;11.70;6.95;;;-1.00;94.00;;;;;;5038433;28;20108;-78
2021/01/26 08:58:55;;;;;;;10.25;5.72;;;-0.90;93.70;;;;;;5038560;28;20043;-78
2021/01/26 09:01:25;;;;;;;12.57;6.57;;;-0.70;92.60;;;;;;5038283;28;20025;-79
2021/01/26 09:03:52;;;;;;;12.85;7.30;;;-0.70;92.50;;;;;;5037681;28;20060;-80
2021/01/26 09:06:39;;;;;;;28.33;14.20;;;-0.60;93.10;;;;;;5038226;28;20112;-79
2021/01/26 09:09:30;;;;;;;17.13;8.80;;;-0.50;93.10;;;;;;5037312;28;20025;-80
2021/01/26 09:12:07;;;;;;;23.77;11.60;;;-0.50;92.40;;;;;;5028643;28;20438;-79
2021/01/26 09:14:45;;;;;;;8.75;5.53;;;-0.40;92.70;;;;;;5055985;28;20057;-78
2021/01/26 09:17:33;;;;;;;14.43;8.07;;;-0.20;91.90;;;;;;5038459;28;20032;-79
2021/01/26 09:20:21;;;;;;;16.40;11.88;;;-0.10;92.80;;;;;;5056006;28;20083;-79
2021/01/26 09:22:48;;;;;;;38.38;21.38;;;0.00;92.80;;;;;;5037701;28;20029;-79
2021/01/26 09:25:13;;;;;;;30.92;19.20;;;0.10;92.90;;;;;;5037822;28;20033;-78
2021/01/26 09:27:39;;;;;;;37.45;22.67;;;0.10;93.20;;;;;;5055497;28;20032;-79
2021/01/26 09:30:12;;;;;;;25.65;17.10;;;0.20;93.10;;;;;;5056949;28;20025;-84
2021/01/26 09:33:07;;;;;;;19.73;9.70;;;0.20;93.30;;;;;;5064818;28;20029;-84
2021/01/26 09:35:37;;;;;;;10.18;6.28;;;0.20;93.30;;;;;;5008942;28;20037;-80
2021/01/26 09:38:10;;;;;;;10.40;5.57;;;0.30;93.00;;;;;;5038149;28;20032;-80
2021/01/26 09:40:38;;;;;;;7.20;5.70;;;0.20;92.40;;;;;;5040188;28;20017;-85
2021/01/26 09:43:13;;;;;;;8.98;5.90;;;0.40;92.90;;;;;;5037341;28;20079;-79
2021/01/26 09:45:39;;;;;;;10.57;6.20;;;0.50;92.50;;;;;;5037552;28;20183;-80
2021/01/26 09:48:06;;;;;;;9.20;5.55;;;0.60;92.70;;;;;;5055499;28;20372;-81
2021/01/26 09:50:32;;;;;;;7.03;4.70;;;0.40;93.30;;;;;;5056085;28;20025;-77
2021/01/26 09:53:01;;;;;;;9.48;5.70;;;0.40;93.10;;;;;;5057420;28;20033;-86
2021/01/26 09:55:28;;;;;;;9.55;5.50;;;0.30;93.00;;;;;;5040023;28;20102;-85
2021/01/26 09:57:55;;;;;;;8.77;5.15;;;0.40;93.00;;;;;;5037819;28;20083;-76
2021/01/26 10:00:24;;;;;;;8.05;5.63;;;0.50;92.50;;;;;;5036683;28;20025;-74
2021/01/26 10:02:56;;;;;;;7.82;4.78;;;0.60;92.50;;;;;;5037700;28;20021;-79
2021/01/26 10:05:28;;;;;;;9.43;5.50;;;0.50;92.40;;;;;;5037793;28;20129;-83
2021/01/26 10:08:07;;;;;;;12.10;6.97;;;0.50;92.70;;;;;;5054838;28;20469;-81
2021/01/26 10:10:34;;;;;;;11.93;7.15;;;0.60;93.00;;;;;;5039756;28;20079;-81
2021/01/26 10:13:27;;;;;;;14.32;8.13;;;0.60;93.40;;;;;;5037811;28;20039;-80
2021/01/26 10:15:54;;;;;;;12.20;7.55;;;0.80;93.70;;;;;;5038231;28;20024;-85
2021/01/26 10:18:24;;;;;;;11.00;6.40;;;0.80;93.70;;;;;;5055904;28;20025;-79
2021/01/26 10:20:57;;;;;;;8.85;5.75;;;1.00;93.70;;;;;;5037925;28;20021;-81
2021/01/26 10:23:40;;;;;;;7.82;5.18;;;1.10;93.00;;;;;;5055658;28;20115;-80
2021/01/26 10:26:10;;;;;;;7.03;5.05;;;1.20;93.00;;;;;;5037179;28;20033;-79
2021/01/26 10:29:13;;;;;;;6.72;4.50;;;1.20;92.90;;;;;;5037903;28;20017;-81
2021/01/26 10:31:49;;;;;;;6.75;4.80;;;1.30;92.30;;;;;;5037234;28;20028;-79
2021/01/26 10:34:23;;;;;;;7.55;4.45;;;1.40;92.30;;;;;;5036094;28;20025;-80
2021/01/26 10:36:49;;;;;;;7.40;4.40;;;1.50;92.40;;;;;;5055113;28;20032;-78
2021/01/26 10:39:29;;;;;;;6.55;4.00;;;1.70;91.60;;;;;;5054218;28;20025;-80
2021/01/26 10:42:20;;;;;;;8.15;3.65;;;1.80;91.30;;;;;;5053860;28;20059;-80
2021/01/26 10:44:52;;;;;;;18.48;8.00;;;1.90;90.30;;;;;;5025881;28;20053;-77
2021/01/26 10:47:29;;;;;;;77.05;24.20;;;2.10;88.10;;;;;;5053960;28;20028;-79
2021/01/26 10:50:01;;;;;;;120.43;44.95;;;2.30;83.00;;;;;;5035694;28;20428;-79
2021/01/26 10:52:46;;;;;;;30.40;11.18;;;2.50;77.30;;;;;;5035897;28;20028;-80
2021/01/26 10:55:15;;;;;;;56.25;21.90;;;2.70;70.00;;;;;;5035813;28;20067;-80
2021/01/26 10:57:42;;;;;;;49.55;26.13;;;2.90;66.90;;;;;;5035572;28;20472;-79
2021/01/26 11:00:10;;;;;;;4.10;1.90;;;3.00;69.00;;;;;;5035858;28;20036;-79
2021/01/26 11:02:36;;;;;;;3.30;2.00;;;3.10;61.20;;;;;;5035940;28;20016;-80
2021/01/26 11:05:08;;;;;;;16.77;9.02;;;3.20;62.60;;;;;;5053630;28;20033;-79
2021/01/26 11:07:34;;;;;;;2.88;2.22;;;3.40;64.00;;;;;;5035393;28;20167;-81
2021/01/26 11:09:59;;;;;;;5.13;2.92;;;3.40;63.40;;;;;;5035756;28;20112;-80
2021/01/26 11:12:25;;;;;;;5.07;2.00;;;3.50;61.10;;;;;;5053144;28;20025;-79
2021/01/26 11:14:54;;;;;;;2.70;1.70;;;3.60;61.20;;;;;;5053322;28;20036;-80
2021/01/26 11:17:20;;;;;;;2.42;1.90;;;3.70;61.50;;;;;;5035374;28;20025;-80
2021/01/26 11:19:49;;;;;;;3.05;2.10;;;3.70;61.70;;;;;;5035008;28;20449;-81
2021/01/26 11:22:16;;;;;;;5.60;3.75;;;3.70;59.60;;;;;;5035135;28;20036;-80
2021/01/26 11:24:42;;;;;;;6.93;4.05;;;3.70;57.70;;;;;;5035160;28;20071;-81
2021/01/26 11:27:09;;;;;;;3.35;1.90;;;3.60;59.70;;;;;;5035308;28;20120;-79
2021/01/26 11:29:34;;;;;;;6.35;3.08;;;3.50;59.60;;;;;;5036078;28;20033;-82
2021/01/26 11:32:00;;;;;;;3.13;1.75;;;4.40;95.50;;;;;;5036558;28;20036;-82
2021/01/26 11:34:26;;;;;;;3.95;2.03;;;4.60;62.60;;;;;;5036169;28;20056;-80
2021/01/26 11:36:51;;;;;;;2.05;1.75;;;4.70;58.00;;;;;;5052625;28;20411;-79
2021/01/26 11:39:17;;;;;;;2.33;1.88;;;4.40;54.20;;;;;;5053014;28;20490;-79
2021/01/26 11:41:43;;;;;;;2.47;2.00;;;4.10;54.90;;;;;;5035112;28;20025;-78
2021/01/26 11:44:08;;;;;;;3.35;2.03;;;3.90;58.80;;;;;;5034969;28;20404;-79
2021/01/26 11:46:34;;;;;;;2.90;1.65;;;3.70;56.40;;;;;;5035354;28;20021;-78
2021/01/26 11:49:00;;;;;;;3.72;2.15;;;3.60;55.80;;;;;;5034504;28;20029;-78
2021/01/26 11:51:25;;;;;;;6.20;2.10;;;3.50;57.70;;;;;;5034674;28;20028;-80
2021/01/26 11:53:51;;;;;;;6.07;2.10;;;3.40;57.00;;;;;;5034932;28;20384;-79
2021/01/26 11:56:19;;;;;;;2.72;1.70;;;3.40;56.90;;;;;;5034543;28;20032;-78
2021/01/26 11:58:45;;;;;;;3.55;2.10;;;3.40;57.30;;;;;;5034998;28;20021;-78
2021/01/26 12:01:11;;;;;;;9.20;2.50;;;3.40;57.30;;;;;;5052546;28;20025;-79
2021/01/26 12:03:36;;;;;;;5.28;3.28;;;3.40;58.10;;;;;;5052415;28;20476;-79
2021/01/26 12:06:03;;;;;;;2.60;1.90;;;3.60;56.30;;;;;;5034634;28;20029;-79
2021/01/26 12:08:28;;;;;;;3.30;2.08;;;3.50;57.00;;;;;;5052431;28;20060;-79
2021/01/26 12:10:54;;;;;;;2.42;1.80;;;3.40;58.30;;;;;;5054393;28;20498;-78
2021/01/26 12:13:20;;;;;;;3.40;2.20;;;3.40;57.00;;;;;;5040869;28;20120;-79
2021/01/26 12:15:46;;;;;;;11.13;4.20;;;3.40;58.90;;;;;;5041227;28;20526;-79
2021/01/26 12:18:12;;;;;;;3.38;1.77;;;3.40;58.80;;;;;;5058819;28;20025;-78
2021/01/26 12:20:38;;;;;;;3.45;2.13;;;3.50;55.50;;;;;;5058742;28;20024;-80
2021/01/26 12:23:04;;;;;;;80.25;40.60;;;3.50;57.00;;;;;;5040765;28;20037;-78
2021/01/26 12:25:32;;;;;;;51.92;25.60;;;3.60;56.30;;;;;;5040858;28;20068;-77
2021/01/26 12:27:57;;;;;;;13.05;6.63;;;3.50;58.30;;;;;;5040679;28;20017;-78
2021/01/26 12:30:24;;;;;;;108.32;83.60;;;3.50;56.80;;;;;;5041082;28;20027;-78
2021/01/26 12:32:50;;;;;;;21.77;12.95;;;3.60;57.30;;;;;;5040959;28;20036;-79
2021/01/26 12:35:22;;;;;;;10.85;6.55;;;3.60;58.50;;;;;;5039183;28;20028;-81
2021/01/26 12:37:48;;;;;;;21.23;13.95;;;3.60;56.80;;;;;;5059862;28;20037;-81
2021/01/26 12:40:14;;;;;;;8.45;3.92;;;3.70;57.30;;;;;;5040344;28;20083;-79
2021/01/26 12:42:40;;;;;;;5.80;1.98;;;3.60;58.80;;;;;;5058240;28;20080;-79
2021/01/26 12:45:08;;;;;;;4.43;1.58;;;3.60;58.20;;;;;;5040256;28;20036;-77
2021/01/26 12:47:34;;;;;;;4.22;1.95;;;3.60;57.70;;;;;;5058419;28;20427;-77
2021/01/26 12:50:00;;;;;;;7.60;1.77;;;3.70;57.30;;;;;;5058666;28;20115;-79
2021/01/26 12:52:25;;;;;;;7.22;2.08;;;3.70;55.90;;;;;;5058102;28;20104;-80
2021/01/26 12:54:51;;;;;;;5.30;2.08;;;3.80;55.10;;;;;;5040547;28;20539;-78
2021/01/26 12:57:17;;;;;;;3.45;2.33;;;3.90;55.30;;;;;;5058598;28;20044;-79
2021/01/26 12:59:43;;;;;;;5.40;3.55;;;4.00;54.50;;;;;;5040297;28;20127;-77
2021/01/26 13:02:09;;;;;;;4.40;2.15;;;4.00;54.80;;;;;;5040444;28;20063;-79
2021/01/26 13:04:34;;;;;;;4.05;2.42;;;4.00;54.60;;;;;;5058373;28;20068;-78
2021/01/26 13:07:00;;;;;;;8.32;1.73;;;4.10;55.40;;;;;;5040418;28;20029;-79
2021/01/26 13:09:26;;;;;;;7.72;2.85;;;4.20;53.60;;;;;;5058044;28;20025;-78
2021/01/26 13:11:51;;;;;;;4.22;2.80;;;4.20;56.50;;;;;;5040404;28;20024;-80
2021/01/26 13:14:17;;;;;;;3.67;2.58;;;4.30;57.20;;;;;;5058242;28;20033;-80
2021/01/26 13:16:43;;;;;;;9.13;2.90;;;4.20;56.70;;;;;;5039656;28;20036;-79
2021/01/26 13:19:09;;;;;;;5.88;2.15;;;4.10;56.80;;;;;;5058540;28;20048;-79